Midland, Texas
Current Conditions -  °F | °C
As of 10:15 AM on Wednesday 22 Oct 2014 (Local Time) from KMDD Reporting Station
Broken Clouds Broken Clouds  
Wind Chill: 19°   Ceiling: 2300
Heat Index: 19°   Visibility: 10mi
Dew Point: 14°   Wind: 12mph
Humidity: 76%   Direction: 150°SSE
Pressure: 30.14"   Gusts: 16mph
Location:  32°N, 102.07°W
Report Text: KMDD 221515Z AUTO 15010G14KT 10SM BKN023 19/14 A3014 RMK AO2 T01850143
Loading
Personal Weather Stations






























Interactive Weather Map
Tropical Storm Tracking
New forecast layout! Learn more

10-Day Weather Forecast

Advertisements
Track Severe Weather on mobile